createdAt,value
2022-07-31T00:09:53.848Z,14.10
2022-07-31T00:14:45.380Z,16.55
2022-07-31T00:24:51.994Z,17.98
2022-07-31T00:29:56.713Z,14.40
2022-07-31T00:40:04.035Z,16.10
2022-07-31T00:45:09.898Z,14.70
2022-07-31T00:50:16.951Z,17.33
2022-07-31T00:55:20.481Z,20.80
2022-07-31T01:00:25.198Z,21.63
2022-07-31T01:10:43.145Z,26.85
2022-07-31T01:20:53.787Z,39.13
2022-07-31T01:26:05.447Z,41.33
2022-07-31T01:31:26.857Z,34.63
2022-07-31T01:36:35.455Z,36.97
2022-07-31T01:41:43.162Z,44.30
2022-07-31T01:46:49.335Z,43.35
2022-07-31T01:51:54.892Z,51.15
2022-07-31T01:57:08.998Z,56.15
2022-07-31T02:02:13.802Z,53.38
2022-07-31T02:07:19.353Z,46.85
2022-07-31T02:12:33.065Z,56.30
2022-07-31T02:17:59.123Z,51.45
2022-07-31T02:23:02.718Z,44.17
2022-07-31T02:28:12.226Z,43.75
2022-07-31T02:33:20.952Z,45.63
2022-07-31T02:38:27.936Z,45.67
2022-07-31T02:43:33.199Z,46.63
2022-07-31T02:48:38.749Z,52.75
2022-07-31T02:53:42.327Z,53.70
2022-07-31T02:58:45.885Z,43.57
2022-07-31T03:03:51.373Z,37.75
2022-07-31T03:08:54.671Z,35.15
2022-07-31T03:13:59.872Z,30.80
2022-07-31T03:19:05.454Z,35.33
2022-07-31T03:24:10.618Z,40.65
2022-07-31T03:29:38.877Z,41.70
2022-07-31T03:34:38.907Z,35.42
2022-07-31T03:39:43.038Z,40.50
2022-07-31T03:44:47.710Z,34.95
2022-07-31T03:49:52.658Z,32.70
2022-07-31T03:54:56.537Z,34.85
2022-07-31T04:00:03.826Z,24.17
2022-07-31T04:05:10.310Z,22.13
2022-07-31T04:10:13.788Z,16.90
2022-07-31T04:15:17.132Z,18.17
2022-07-31T04:20:22.066Z,15.60
2022-07-31T04:25:25.363Z,12.13
2022-07-31T04:30:28.883Z,11.48
2022-07-31T04:40:36.663Z,9.60
2022-07-31T04:45:40.178Z,9.30
2022-07-31T04:50:44.999Z,9.15
2022-07-31T04:56:08.625Z,7.63
2022-07-31T05:01:11.986Z,4.50
2022-07-31T05:06:20.064Z,3.80
2022-07-31T05:11:26.600Z,2.90
2022-07-31T05:16:31.323Z,4.32
2022-07-31T05:21:47.129Z,3.60
2022-07-31T05:26:57.409Z,5.65
2022-07-31T05:32:01.430Z,4.63
2022-07-31T05:37:06.464Z,4.50
2022-07-31T05:42:09.828Z,3.72
2022-07-31T05:47:13.230Z,3.35
2022-07-31T05:52:19.810Z,3.50
2022-07-31T05:57:33.015Z,4.80
2022-07-31T06:02:37.626Z,3.50
2022-07-31T06:07:44.508Z,3.53
2022-07-31T06:12:54.831Z,4.38
2022-07-31T06:17:59.314Z,3.35
2022-07-31T06:23:04.073Z,2.05
2022-07-31T06:28:37.885Z,2.38
2022-07-31T06:33:50.989Z,2.55
2022-07-31T06:38:55.855Z,3.35
2022-07-31T06:43:59.215Z,3.10
2022-07-31T06:49:05.622Z,4.53
2022-07-31T06:54:13.562Z,2.80
2022-07-31T06:59:23.649Z,3.60
2022-07-31T07:05:00.048Z,2.08
2022-07-31T07:10:06.229Z,2.97
2022-07-31T07:15:10.847Z,2.60
2022-07-31T07:20:14.698Z,3.22
2022-07-31T07:25:20.638Z,2.58
2022-07-31T07:30:23.979Z,2.70
2022-07-31T07:35:28.618Z,4.97
2022-07-31T07:40:35.569Z,4.43
2022-07-31T07:45:40.071Z,2.70
2022-07-31T07:50:43.589Z,3.15
2022-07-31T08:00:51.349Z,2.78
2022-07-31T08:05:54.733Z,5.43
2022-07-31T08:11:01.224Z,4.53
2022-07-31T08:16:04.716Z,2.47
2022-07-31T08:21:08.154Z,3.53
2022-07-31T08:26:13.789Z,2.03
2022-07-31T08:31:17.514Z,1.98
2022-07-31T08:36:20.795Z,1.83
2022-07-31T08:41:25.576Z,1.60
2022-07-31T08:46:29.937Z,2.17
2022-07-31T08:51:50.948Z,2.10
2022-07-31T08:56:56.620Z,2.28
2022-07-31T09:02:00.039Z,5.20
2022-07-31T09:07:03.722Z,2.72
2022-07-31T09:12:09.585Z,2.60
2022-07-31T09:17:15.931Z,3.33
2022-07-31T09:22:23.670Z,3.67
2022-07-31T09:27:30.779Z,2.92
2022-07-31T09:32:34.114Z,4.60
2022-07-31T09:42:55.354Z,2.05
2022-07-31T09:48:08.313Z,2.55
2022-07-31T09:53:15.778Z,4.80
2022-07-31T10:03:26.013Z,2.42
2022-07-31T10:08:30.574Z,3.08
2022-07-31T10:13:40.587Z,3.35
2022-07-31T10:18:49.747Z,5.00
2022-07-31T10:23:55.381Z,2.15
2022-07-31T10:29:00.609Z,2.92
2022-07-31T10:34:04.243Z,3.25
2022-07-31T10:39:15.850Z,3.72
2022-07-31T10:44:24.512Z,2.05
2022-07-31T10:49:49.967Z,2.25
2022-07-31T10:54:54.760Z,2.42
2022-07-31T11:00:11.948Z,3.47
2022-07-31T11:05:17.139Z,3.40
2022-07-31T11:10:22.910Z,2.85
2022-07-31T11:15:28.161Z,3.35
2022-07-31T11:20:32.814Z,1.92
2022-07-31T11:25:37.502Z,3.28
2022-07-31T11:30:56.533Z,3.67
2022-07-31T11:36:07.540Z,3.05
2022-07-31T11:41:11.383Z,2.65
2022-07-31T11:46:26.775Z,2.50
2022-07-31T11:51:31.334Z,2.60
2022-07-31T11:56:34.986Z,3.22
2022-07-31T12:06:44.342Z,3.00
2022-07-31T12:11:48.099Z,2.47
2022-07-31T12:16:52.798Z,2.92
2022-07-31T12:21:56.439Z,3.58
2022-07-31T12:32:06.011Z,2.55
2022-07-31T12:37:11.149Z,2.72
2022-07-31T12:42:29.179Z,1.88
2022-07-31T12:47:38.070Z,2.53
2022-07-31T12:52:41.454Z,4.60
2022-07-31T12:57:50.650Z,2.30
2022-07-31T13:02:58.398Z,3.13
2022-07-31T13:08:01.837Z,2.70
2022-07-31T13:18:09.852Z,2.40
2022-07-31T13:23:13.202Z,2.10
2022-07-31T13:28:16.598Z,3.00
2022-07-31T13:33:21.318Z,2.45
2022-07-31T13:38:24.822Z,4.80
2022-07-31T13:43:28.250Z,2.42
2022-07-31T13:48:33.613Z,2.22
2022-07-31T13:53:36.989Z,3.13
2022-07-31T13:58:40.487Z,4.25
2022-07-31T14:03:45.515Z,4.47
2022-07-31T14:08:51.279Z,2.45
2022-07-31T14:13:54.643Z,3.03
2022-07-31T14:18:59.599Z,3.13
2022-07-31T14:24:03.047Z,2.25
2022-07-31T14:29:07.279Z,3.45
2022-07-31T14:34:12.250Z,3.17
2022-07-31T14:39:15.814Z,3.05
2022-07-31T14:44:21.873Z,5.55
2022-07-31T14:50:06.991Z,4.07
2022-07-31T14:54:59.860Z,3.40
2022-07-31T15:00:03.390Z,4.10
2022-07-31T15:06:40.037Z,2.75
2022-07-31T15:10:32.948Z,5.78
2022-07-31T15:15:36.383Z,2.42
2022-07-31T15:20:41.196Z,2.15
2022-07-31T15:25:44.596Z,2.05
2022-07-31T15:30:49.344Z,4.63
2022-07-31T15:35:54.121Z,3.05
2022-07-31T15:40:57.539Z,3.83
2022-07-31T15:46:06.855Z,4.10
2022-07-31T15:51:11.986Z,3.00
2022-07-31T15:56:15.625Z,3.63
2022-07-31T16:01:19.540Z,6.25
2022-07-31T16:12:04.488Z,4.38
2022-07-31T16:16:58.853Z,2.97
2022-07-31T16:22:03.589Z,3.63
2022-07-31T16:27:07.234Z,4.20
2022-07-31T16:32:10.884Z,4.20
2022-07-31T16:37:16.249Z,4.82
2022-07-31T16:42:19.593Z,3.83
2022-07-31T16:47:45.703Z,2.40
2022-07-31T16:52:56.034Z,5.10
2022-07-31T16:57:59.642Z,4.05
2022-07-31T17:03:03.021Z,7.63
2022-07-31T17:08:08.429Z,4.90
2022-07-31T17:13:11.837Z,8.00
2022-07-31T17:18:15.237Z,6.40
2022-07-31T17:23:42.998Z,5.23
2022-07-31T17:28:43.419Z,6.85
2022-07-31T17:33:58.434Z,4.45
2022-07-31T17:39:06.184Z,6.90
2022-07-31T17:44:09.495Z,7.38
2022-07-31T17:54:26.173Z,5.47
2022-07-31T17:59:31.734Z,6.85
2022-07-31T18:09:40.531Z,4.82
2022-07-31T18:14:44.052Z,5.20
2022-07-31T18:19:48.198Z,6.23
2022-07-31T18:24:53.136Z,6.15
2022-07-31T18:29:56.591Z,6.45
2022-07-31T18:35:00.689Z,8.33
2022-07-31T18:45:11.441Z,7.72
2022-07-31T18:55:39.661Z,6.15
2022-07-31T19:00:44.845Z,8.35
2022-07-31T19:05:50.235Z,5.47
2022-07-31T19:10:55.097Z,8.10
2022-07-31T19:15:58.498Z,6.13
2022-07-31T19:21:21.286Z,14.35
2022-07-31T19:26:27.782Z,8.07
2022-07-31T19:31:31.080Z,7.65
2022-07-31T19:36:34.629Z,8.23
2022-07-31T19:41:39.616Z,9.47
2022-07-31T19:46:42.951Z,12.90
2022-07-31T19:51:46.294Z,10.90
2022-07-31T19:56:51.138Z,14.30
2022-07-31T20:01:55.290Z,17.40
2022-07-31T20:06:58.665Z,17.25
2022-07-31T20:12:03.860Z,11.70
2022-07-31T20:17:07.435Z,10.90
2022-07-31T20:22:11.451Z,16.35
2022-07-31T20:27:16.142Z,10.50
2022-07-31T20:32:21.651Z,15.27
2022-07-31T20:37:27.006Z,17.52
2022-07-31T20:42:31.838Z,19.40
2022-07-31T20:47:35.185Z,22.35
2022-07-31T20:52:38.644Z,17.15
2022-07-31T20:57:44.481Z,14.00
2022-07-31T21:02:47.992Z,20.20
2022-07-31T21:07:53.294Z,17.33
2022-07-31T21:12:59.089Z,21.53
2022-07-31T21:18:03.646Z,14.95
2022-07-31T21:23:07.024Z,13.55
2022-07-31T21:28:15.683Z,15.85
2022-07-31T21:33:19.346Z,10.88
2022-07-31T21:38:22.903Z,13.27
2022-07-31T21:43:45.815Z,14.53
2022-07-31T21:48:54.431Z,13.65
2022-07-31T21:53:59.264Z,11.95
2022-07-31T21:59:03.951Z,8.82
2022-07-31T22:04:07.427Z,8.55
2022-07-31T22:09:10.783Z,13.40
2022-07-31T22:14:15.517Z,9.20
2022-07-31T22:19:19.316Z,10.18
2022-07-31T22:24:22.931Z,9.47
2022-07-31T22:29:29.627Z,10.18
2022-07-31T22:34:37.701Z,15.35
2022-07-31T22:39:41.651Z,7.75
2022-07-31T22:44:46.671Z,9.83
2022-07-31T22:49:50.182Z,7.55
2022-07-31T22:54:53.899Z,8.73
2022-07-31T22:59:58.669Z,11.90
2022-07-31T23:05:02.026Z,12.00
2022-07-31T23:10:07.800Z,11.65
2022-07-31T23:15:12.731Z,11.55
2022-07-31T23:20:16.135Z,9.57
2022-07-31T23:25:20.928Z,9.05
2022-07-31T23:30:27.569Z,12.00
2022-07-31T23:35:30.880Z,8.18
2022-07-31T23:40:34.219Z,11.43
2022-07-31T23:45:39.017Z,9.40
2022-07-31T23:50:44.391Z,12.88
2022-07-31T23:55:47.682Z,10.63
